createdAt,value
2018-02-14T00:02:24.837Z,3.03
2018-02-14T00:04:54.645Z,2.80
2018-02-14T00:07:24.448Z,2.95
2018-02-14T00:09:54.313Z,2.95
2018-02-14T00:12:24.215Z,2.80
2018-02-14T00:14:54.625Z,2.92
2018-02-14T00:17:24.782Z,2.40
2018-02-14T00:19:54.515Z,2.53
2018-02-14T00:22:25.190Z,3.00
2018-02-14T00:24:54.955Z,2.72
2018-02-14T00:27:25.512Z,2.58
2018-02-14T00:29:55.368Z,2.87
2018-02-14T00:32:25.212Z,3.00
2018-02-14T00:34:55.760Z,2.67
2018-02-14T00:37:25.451Z,2.72
2018-02-14T00:39:56.050Z,3.22
2018-02-14T00:42:25.848Z,2.85
2018-02-14T00:44:55.723Z,3.47
2018-02-14T00:47:25.540Z,2.97
2018-02-14T00:49:55.466Z,2.90
2018-02-14T00:52:25.294Z,3.00
2018-02-14T00:54:55.100Z,3.45
2018-02-14T00:57:25.017Z,2.75
2018-02-14T00:59:54.764Z,2.72
2018-02-14T01:02:25.483Z,2.75
2018-02-14T01:04:55.225Z,2.80
2018-02-14T01:07:25.894Z,2.83
2018-02-14T01:09:55.595Z,2.62
2018-02-14T01:12:25.647Z,2.90
2018-02-14T01:14:55.416Z,3.00
2018-02-14T01:17:25.214Z,3.15
2018-02-14T01:19:59.839Z,3.22
2018-02-14T01:22:30.436Z,3.33
2018-02-14T01:25:00.462Z,2.55
2018-02-14T01:27:30.171Z,2.95
2018-02-14T01:30:00.690Z,3.20
2018-02-14T01:32:30.451Z,3.30
2018-02-14T01:35:00.159Z,3.20
2018-02-14T01:37:30.756Z,2.97
2018-02-14T01:40:00.493Z,3.10
2018-02-14T01:42:31.040Z,3.60
2018-02-14T01:45:01.045Z,3.37
2018-02-14T01:47:31.764Z,3.05
2018-02-14T01:50:02.271Z,3.80
2018-02-14T01:52:32.996Z,3.30
2018-02-14T01:55:02.739Z,2.95
2018-02-14T01:57:33.240Z,3.65
2018-02-14T02:00:03.056Z,3.33
2018-02-14T02:02:32.776Z,3.75
2018-02-14T02:05:02.763Z,3.53
2018-02-14T02:07:32.598Z,3.50
2018-02-14T02:10:02.338Z,4.00
2018-02-14T02:12:32.816Z,3.03
2018-02-14T02:15:02.612Z,3.47
2018-02-14T02:17:32.479Z,3.45
2018-02-14T02:20:03.072Z,3.60
2018-02-14T02:22:32.950Z,3.75
2018-02-14T02:25:02.951Z,3.83
2018-02-14T02:27:33.629Z,3.70
2018-02-14T02:30:03.331Z,3.62
2018-02-14T02:32:33.144Z,3.80
2018-02-14T02:35:03.016Z,3.85
2018-02-14T02:37:33.520Z,3.35
2018-02-14T02:40:47.175Z,3.95
2018-02-14T02:43:16.974Z,3.70
2018-02-14T02:45:46.860Z,4.22
2018-02-14T02:48:16.813Z,3.50
2018-02-14T02:50:46.577Z,4.18
2018-02-14T02:53:16.577Z,3.97
2018-02-14T02:55:46.439Z,4.10
2018-02-14T02:58:16.205Z,4.37
2018-02-14T03:00:45.896Z,3.92
2018-02-14T03:03:16.418Z,4.00
2018-02-14T03:05:46.996Z,4.03
2018-02-14T03:08:16.816Z,3.97
2018-02-14T03:10:46.624Z,4.18
2018-02-14T03:13:16.606Z,4.18
2018-02-14T03:15:47.159Z,3.92
2018-02-14T03:18:16.895Z,4.15
2018-02-14T03:20:46.781Z,4.18
2018-02-14T03:23:16.482Z,4.40
2018-02-14T03:25:46.812Z,4.30
2018-02-14T03:28:16.679Z,4.03
2018-02-14T03:30:46.444Z,4.95
2018-02-14T03:33:16.386Z,4.53
2018-02-14T03:35:46.495Z,4.00
2018-02-14T03:38:16.411Z,4.40
2018-02-14T03:40:46.256Z,4.40
2018-02-14T03:43:16.243Z,4.57
2018-02-14T03:45:46.410Z,3.97
2018-02-14T03:48:17.236Z,4.90
2018-02-14T03:50:46.996Z,4.40
2018-02-14T03:53:16.923Z,4.32
2018-02-14T03:55:46.885Z,4.70
2018-02-14T03:58:16.701Z,4.40
2018-02-14T04:00:46.501Z,4.10
2018-02-14T04:03:17.067Z,4.35
2018-02-14T04:05:47.011Z,5.20
2018-02-14T04:08:16.845Z,4.15
2018-02-14T04:10:46.752Z,4.10
2018-02-14T04:13:16.472Z,5.22
2018-02-14T04:15:46.177Z,4.78
2018-02-14T04:18:16.083Z,4.57
2018-02-14T04:20:45.880Z,4.47
2018-02-14T04:23:15.963Z,4.60
2018-02-14T04:25:46.625Z,5.10
2018-02-14T04:28:16.376Z,4.78
2018-02-14T04:30:46.160Z,4.57
2018-02-14T04:33:16.060Z,4.32
2018-02-14T04:35:45.920Z,5.28
2018-02-14T04:38:15.603Z,4.20
2018-02-14T04:40:45.497Z,4.82
2018-02-14T04:43:15.498Z,4.22
2018-02-14T04:45:45.193Z,4.70
2018-02-14T04:48:15.652Z,4.65
2018-02-14T04:50:45.346Z,5.37
2018-02-14T04:53:15.950Z,5.10
2018-02-14T04:55:47.227Z,4.00
2018-02-14T04:58:17.160Z,3.72
2018-02-14T05:00:47.114Z,3.60
2018-02-14T05:03:16.871Z,4.85
2018-02-14T05:05:46.557Z,3.85
2018-02-14T05:08:17.227Z,4.95
2018-02-14T05:10:46.868Z,4.80
2018-02-14T05:13:16.987Z,4.15
2018-02-14T05:15:46.855Z,5.03
2018-02-14T05:18:16.568Z,4.22
2018-02-14T05:20:46.268Z,4.28
2018-02-14T05:23:16.976Z,3.80
2018-02-14T05:25:46.766Z,4.10
2018-02-14T05:28:16.906Z,4.50
2018-02-14T05:30:47.529Z,4.35
2018-02-14T05:33:17.458Z,4.95
2018-02-14T05:35:48.252Z,5.05
2018-02-14T05:38:18.129Z,4.32
2018-02-14T05:40:48.595Z,5.37
2018-02-14T05:43:18.297Z,4.72
2018-02-14T05:45:48.231Z,5.00
2018-02-14T05:48:17.938Z,4.78
2018-02-14T05:50:47.890Z,5.07
2018-02-14T05:55:50.356Z,5.60
2018-02-14T05:58:20.387Z,4.55
2018-02-14T06:00:50.119Z,5.25
2018-02-14T06:03:35.438Z,5.57
2018-02-14T06:06:05.121Z,4.78
2018-02-14T06:08:35.806Z,5.15
2018-02-14T06:11:05.656Z,4.68
2018-02-14T06:13:36.164Z,5.55
2018-02-14T06:16:06.265Z,5.53
2018-02-14T06:18:36.403Z,5.28
2018-02-14T06:21:06.371Z,5.62
2018-02-14T06:23:36.332Z,5.78
2018-02-14T06:26:44.611Z,5.85
2018-02-14T06:29:14.483Z,4.95
2018-02-14T06:31:44.363Z,6.03
2018-02-14T06:34:14.038Z,4.97
2018-02-14T06:36:44.828Z,5.80
2018-02-14T06:39:14.710Z,6.30
2018-02-14T06:41:44.736Z,6.70
2018-02-14T06:44:14.694Z,5.62
2018-02-14T06:46:44.829Z,5.53
2018-02-14T06:49:23.794Z,6.80
2018-02-14T06:51:53.634Z,6.03
2018-02-14T06:54:24.253Z,6.65
2018-02-14T06:56:54.209Z,7.00
2018-02-14T06:59:24.070Z,6.22
2018-02-14T07:01:53.752Z,5.85
2018-02-14T07:04:24.415Z,6.30
2018-02-14T07:06:54.229Z,7.35
2018-02-14T07:09:24.034Z,7.03
2018-02-14T07:11:54.085Z,7.55
2018-02-14T07:14:23.896Z,6.45
2018-02-14T07:16:53.778Z,7.95
2018-02-14T07:19:23.779Z,6.57
2018-02-14T07:21:54.331Z,7.93
2018-02-14T07:24:25.020Z,6.93
2018-02-14T07:26:55.073Z,7.57
2018-02-14T07:29:24.976Z,7.72
2018-02-14T07:31:54.913Z,7.90
2018-02-14T07:34:25.286Z,7.37
2018-02-14T07:36:55.151Z,6.35
2018-02-14T07:39:25.132Z,7.00
2018-02-14T07:41:56.405Z,7.30
2018-02-14T07:44:27.164Z,7.35
2018-02-14T07:46:56.944Z,7.15
2018-02-14T07:49:26.799Z,7.80
2018-02-14T07:51:56.843Z,7.68
2018-02-14T07:54:27.064Z,7.65
2018-02-14T07:56:57.024Z,7.47
2018-02-14T07:59:27.404Z,8.48
2018-02-14T08:01:57.151Z,7.78
2018-02-14T08:04:27.289Z,7.97
2018-02-14T08:06:57.318Z,7.87
2018-02-14T08:09:27.812Z,8.02
2018-02-14T08:11:59.082Z,8.50
2018-02-14T08:14:30.589Z,9.10
2018-02-14T08:17:00.381Z,8.60
2018-02-14T08:19:30.531Z,7.40
2018-02-14T08:22:01.149Z,8.98
2018-02-14T08:24:31.284Z,8.38
2018-02-14T08:27:01.951Z,8.38
2018-02-14T08:29:31.848Z,7.87
2018-02-14T08:32:01.728Z,7.93
2018-02-14T08:34:32.255Z,8.30
2018-02-14T08:37:02.660Z,8.65
2018-02-14T08:39:32.485Z,8.30
2018-02-14T08:42:02.470Z,8.30
2018-02-14T08:44:32.748Z,8.05
2018-02-14T08:47:03.392Z,8.40
2018-02-14T08:49:34.312Z,8.70
2018-02-14T08:52:04.155Z,8.55
2018-02-14T08:54:34.229Z,8.57
2018-02-14T08:57:04.566Z,8.32
2018-02-14T08:59:34.415Z,8.00
2018-02-14T09:02:04.288Z,8.48
2018-02-14T09:04:34.208Z,8.85
2018-02-14T09:07:04.044Z,8.25
2018-02-14T09:09:34.704Z,8.13
2018-02-14T09:12:04.982Z,9.52
2018-02-14T09:14:35.511Z,8.93
2018-02-14T09:17:06.044Z,9.00
2018-02-14T09:19:36.803Z,7.82
2018-02-14T09:22:06.836Z,9.30
2018-02-14T09:24:36.555Z,8.82
2018-02-14T09:27:06.332Z,9.35
2018-02-14T09:29:37.104Z,9.73
2018-02-14T09:32:06.990Z,9.07
2018-02-14T09:34:36.906Z,8.82
2018-02-14T09:37:07.016Z,8.65
2018-02-14T09:39:37.778Z,9.10
2018-02-14T09:42:07.482Z,8.30
2018-02-14T09:44:37.835Z,8.75
2018-02-14T09:47:07.947Z,9.02
2018-02-14T09:49:37.938Z,8.60
2018-02-14T09:52:07.972Z,8.57
2018-02-14T09:54:37.785Z,8.32
2018-02-14T09:57:08.795Z,7.93
2018-02-14T09:59:38.805Z,8.20
2018-02-14T10:02:09.564Z,8.15
2018-02-14T10:04:39.565Z,7.75
2018-02-14T10:07:10.130Z,8.10
2018-02-14T10:09:40.029Z,8.32
2018-02-14T10:12:09.820Z,8.32
2018-02-14T10:14:40.708Z,8.07
2018-02-14T10:17:10.737Z,7.68
2018-02-14T10:19:40.550Z,7.60
2018-02-14T10:22:10.519Z,7.87
2018-02-14T10:24:40.321Z,8.48
2018-02-14T10:27:10.032Z,7.75
2018-02-14T10:29:39.951Z,6.87
2018-02-14T10:32:10.024Z,7.95
2018-02-14T10:34:39.904Z,7.82
2018-02-14T10:37:09.979Z,7.70
2018-02-14T10:39:39.797Z,7.25
2018-02-14T10:42:10.391Z,7.47
2018-02-14T10:44:40.375Z,7.82
2018-02-14T10:47:10.208Z,7.30
2018-02-14T10:49:40.014Z,7.40
2018-02-14T10:52:09.972Z,7.17
2018-02-14T10:54:41.457Z,7.10
2018-02-14T10:57:11.296Z,6.97
2018-02-14T10:59:41.121Z,6.40
2018-02-14T11:02:11.140Z,6.53
2018-02-14T11:04:44.999Z,6.85
2018-02-14T11:07:19.068Z,6.27
2018-02-14T11:09:48.785Z,6.07
2018-02-14T11:12:18.599Z,6.80
2018-02-14T11:14:49.191Z,6.23
2018-02-14T11:17:19.031Z,6.28
2018-02-14T11:19:48.832Z,5.93
2018-02-14T11:22:18.693Z,6.43
2018-02-14T11:24:49.532Z,5.87
2018-02-14T11:27:20.011Z,6.18
2018-02-14T11:29:49.825Z,6.07
2018-02-14T11:32:19.588Z,6.00
2018-02-14T11:34:50.044Z,5.97
2018-02-14T11:37:19.750Z,6.30
2018-02-14T11:39:49.708Z,5.25
2018-02-14T11:42:19.598Z,5.77
2018-02-14T11:44:50.432Z,5.80
2018-02-14T11:47:20.484Z,6.17
2018-02-14T11:49:50.316Z,5.53
2018-02-14T11:52:20.966Z,5.20
2018-02-14T11:54:51.531Z,5.63
2018-02-14T11:57:21.652Z,5.20
2018-02-14T11:59:51.569Z,5.23
2018-02-14T12:02:21.540Z,5.40
2018-02-14T12:04:52.270Z,5.13
2018-02-14T12:07:22.874Z,5.33
2018-02-14T12:09:52.671Z,5.50
2018-02-14T12:12:22.499Z,5.00
2018-02-14T12:14:52.490Z,4.63
2018-02-14T12:17:22.379Z,4.73
2018-02-14T12:19:53.031Z,4.50
2018-02-14T12:22:22.760Z,4.73
2018-02-14T12:24:52.642Z,4.50
2018-02-14T12:27:22.918Z,4.90
2018-02-14T12:29:54.343Z,4.33
2018-02-14T12:32:24.094Z,4.67
2018-02-14T12:34:54.705Z,4.23
2018-02-14T12:37:24.619Z,4.40
2018-02-14T12:39:54.866Z,4.40
2018-02-14T12:42:24.908Z,4.47
2018-02-14T12:44:55.061Z,4.43
2018-02-14T12:47:24.823Z,4.30
2018-02-14T12:49:54.711Z,3.90
2018-02-14T12:52:24.677Z,4.80
2018-02-14T12:54:55.679Z,4.20
2018-02-14T12:57:25.628Z,4.50
2018-02-14T12:59:55.914Z,4.80
2018-02-14T13:02:27.271Z,4.47
2018-02-14T13:04:57.010Z,4.93
2018-02-14T13:07:26.879Z,5.10
2018-02-14T13:09:56.711Z,4.33
2018-02-14T13:12:26.759Z,4.50
2018-02-14T13:14:56.611Z,4.63
2018-02-14T13:17:26.808Z,4.20
2018-02-14T13:19:56.980Z,4.50
2018-02-14T13:22:26.959Z,4.63
2018-02-14T13:24:56.960Z,4.53
2018-02-14T13:27:26.830Z,4.90
2018-02-14T13:29:56.891Z,4.80
2018-02-14T13:32:26.605Z,4.50
2018-02-14T13:34:56.795Z,4.50
2018-02-14T13:37:27.604Z,4.33
2018-02-14T13:39:58.827Z,4.80
2018-02-14T13:42:28.730Z,4.20
2018-02-14T13:44:58.445Z,3.97
2018-02-14T13:47:28.188Z,3.90
2018-02-14T13:49:58.100Z,4.73
2018-02-14T13:52:28.746Z,4.03
2018-02-14T13:55:00.379Z,4.37
2018-02-14T13:57:30.114Z,4.00
2018-02-14T14:00:00.803Z,4.03
2018-02-14T14:02:31.047Z,3.67
2018-02-14T14:05:00.839Z,3.73
2018-02-14T14:07:30.617Z,4.23
2018-02-14T14:10:01.096Z,3.60
2018-02-14T14:12:31.011Z,4.37
2018-02-14T14:15:00.803Z,4.23
2018-02-14T14:17:31.874Z,4.20
2018-02-14T14:20:05.669Z,4.30
2018-02-14T14:22:38.152Z,4.33
2018-02-14T14:25:09.501Z,3.70
2018-02-14T14:27:40.066Z,3.90
2018-02-14T14:30:11.170Z,4.20
2018-02-14T14:32:43.700Z,4.17
2018-02-14T14:35:13.744Z,4.43
2018-02-14T14:37:43.624Z,4.27
2018-02-14T14:40:14.314Z,4.30
2018-02-14T14:42:44.562Z,4.27
2018-02-14T14:45:14.701Z,4.47
2018-02-14T14:47:44.544Z,4.00
2018-02-14T14:50:14.550Z,4.53
2018-02-14T14:52:44.363Z,4.80
2018-02-14T14:55:21.115Z,4.90
2018-02-14T14:57:51.776Z,4.33
2018-02-14T15:00:22.153Z,4.83
2018-02-14T15:02:52.367Z,5.17
2018-02-14T15:05:22.181Z,4.90
2018-02-14T15:07:51.989Z,4.50
2018-02-14T15:10:21.868Z,5.00
2018-02-14T15:12:51.928Z,4.60
2018-02-14T15:15:22.152Z,4.63
2018-02-14T15:17:52.001Z,4.73
2018-02-14T15:20:22.073Z,4.53
2018-02-14T15:22:52.515Z,4.63
2018-02-14T15:25:22.257Z,4.43
2018-02-14T15:27:52.884Z,5.03
2018-02-14T15:30:23.392Z,4.83
2018-02-14T15:32:53.421Z,5.07
2018-02-14T15:35:24.112Z,4.53
2018-02-14T15:37:54.021Z,4.30
2018-02-14T15:40:23.803Z,4.67
2018-02-14T15:42:53.656Z,5.50
2018-02-14T15:45:23.978Z,5.30
2018-02-14T15:47:53.808Z,4.47
2018-02-14T15:50:23.524Z,4.50
2018-02-14T15:52:53.293Z,4.37
2018-02-14T15:55:23.549Z,4.60
2018-02-14T15:57:53.380Z,4.03
2018-02-14T16:00:23.591Z,4.73
2018-02-14T16:02:53.415Z,4.20
2018-02-14T16:05:24.001Z,4.17
2018-02-14T16:07:54.109Z,4.20
2018-02-14T16:10:23.896Z,3.90
2018-02-14T16:12:53.617Z,4.10
2018-02-14T16:15:24.358Z,3.27
2018-02-14T16:17:54.388Z,3.53
2018-02-14T16:20:24.156Z,3.93
2018-02-14T16:22:53.988Z,4.00
2018-02-14T16:25:24.813Z,3.53
2018-02-14T16:27:55.349Z,3.40
2018-02-14T16:30:25.946Z,3.63
2018-02-14T16:32:56.369Z,3.63
2018-02-14T16:35:26.119Z,3.67
2018-02-14T16:37:56.881Z,3.40
2018-02-14T16:40:26.881Z,3.83
2018-02-14T16:42:56.717Z,3.77
2018-02-14T16:45:26.601Z,3.93
2018-02-14T16:47:57.105Z,3.90
2018-02-14T16:50:26.951Z,3.70
2018-02-14T16:52:56.735Z,3.40
2018-02-14T16:55:27.304Z,3.57
2018-02-14T16:57:57.114Z,3.97
2018-02-14T17:00:26.902Z,3.70
2018-02-14T17:02:57.570Z,3.90
2018-02-14T17:05:28.268Z,3.57
2018-02-14T17:07:58.817Z,3.63
2018-02-14T17:10:28.561Z,3.30
2018-02-14T17:12:58.924Z,4.30
2018-02-14T17:15:28.994Z,4.00
2018-02-14T17:17:58.790Z,3.77
2018-02-14T17:20:28.611Z,4.30
2018-02-14T17:22:58.750Z,3.83
2018-02-14T17:25:28.640Z,3.70
2018-02-14T17:27:58.461Z,4.57
2018-02-14T17:30:28.531Z,4.40
2018-02-14T17:32:58.344Z,3.43
2018-02-14T17:35:28.279Z,4.00
2018-02-14T17:37:58.808Z,4.10
2018-02-14T17:40:29.363Z,4.33
2018-02-14T17:42:59.803Z,3.67
2018-02-14T17:45:29.776Z,4.00
2018-02-14T17:47:59.595Z,4.50
2018-02-14T17:50:31.116Z,4.20
2018-02-14T17:53:01.223Z,4.20
2018-02-14T17:55:31.843Z,4.03
2018-02-14T17:58:01.922Z,4.50
2018-02-14T18:00:32.880Z,4.30
2018-02-14T18:03:02.797Z,4.33
2018-02-14T18:05:32.796Z,4.40
2018-02-14T18:08:02.762Z,3.70
2018-02-14T18:10:32.769Z,3.80
2018-02-14T18:13:02.664Z,4.20
2018-02-14T18:15:33.402Z,4.05
2018-02-14T18:18:03.395Z,4.77
2018-02-14T18:20:33.298Z,4.10
2018-02-14T18:23:04.999Z,3.95
2018-02-14T18:25:35.562Z,5.10
2018-02-14T18:28:05.944Z,4.55
2018-02-14T18:30:35.852Z,4.78
2018-02-14T18:33:05.997Z,4.97
2018-02-14T18:35:36.537Z,5.10
2018-02-14T18:38:06.643Z,4.62
2018-02-14T18:40:36.464Z,4.60
2018-02-14T18:43:06.590Z,4.22
2018-02-14T18:45:36.438Z,4.93
2018-02-14T18:48:07.539Z,4.80
2018-02-14T18:50:37.597Z,4.75
2018-02-14T18:53:08.335Z,5.15
2018-02-14T18:55:38.285Z,5.07
2018-02-14T18:58:08.211Z,5.32
2018-02-14T19:00:38.010Z,5.28
2018-02-14T19:03:08.104Z,5.30
2018-02-14T19:05:38.545Z,5.37
2018-02-14T19:08:09.054Z,5.40
2018-02-14T19:10:39.750Z,4.93
2018-02-14T19:13:10.402Z,5.78
2018-02-14T19:15:40.310Z,6.15
2018-02-14T19:18:10.245Z,5.70
2018-02-14T19:20:40.100Z,6.40
2018-02-14T19:23:10.135Z,6.12
2018-02-14T19:25:39.930Z,6.47
2018-02-14T19:28:10.115Z,6.62
2018-02-14T19:30:39.947Z,6.62
2018-02-14T19:33:09.888Z,6.68
2018-02-14T19:35:39.757Z,6.60
2018-02-14T19:38:11.703Z,6.95
2018-02-14T19:40:42.544Z,6.62
2018-02-14T19:43:12.673Z,6.50
2018-02-14T19:45:44.483Z,6.33
2018-02-14T19:48:14.692Z,6.53
2018-02-14T19:50:44.864Z,5.95
2018-02-14T19:53:15.462Z,6.57
2018-02-14T19:55:45.603Z,6.18
2018-02-14T19:58:16.308Z,6.57
2018-02-14T20:00:47.285Z,6.15
2018-02-14T20:03:18.032Z,6.65
2018-02-14T20:05:49.196Z,6.28
2018-02-14T20:08:20.326Z,7.00
2018-02-14T20:10:50.403Z,6.93
2018-02-14T20:13:20.741Z,6.78
2018-02-14T20:15:50.681Z,7.00
2018-02-14T20:18:27.793Z,6.78
2018-02-14T20:20:59.616Z,7.03
2018-02-14T20:23:30.194Z,7.68
2018-02-14T20:26:00.092Z,7.07
2018-02-14T20:28:30.933Z,7.53
2018-02-14T20:31:00.668Z,6.53
2018-02-14T20:33:30.779Z,7.22
2018-02-14T20:36:02.391Z,7.20
2018-02-14T20:38:32.944Z,7.18
2018-02-14T20:41:04.673Z,7.05
2018-02-14T20:43:34.678Z,7.05
2018-02-14T20:46:04.522Z,7.40
2018-02-14T20:48:35.532Z,7.70
2018-02-14T20:51:05.622Z,7.65
2018-02-14T20:53:35.521Z,7.32
2018-02-14T20:56:05.505Z,7.70
2018-02-14T20:58:36.194Z,8.05
2018-02-14T21:01:06.083Z,7.45
2018-02-14T21:03:35.818Z,7.15
2018-02-14T21:06:05.592Z,8.15
2018-02-14T21:08:36.228Z,7.93
2018-02-14T21:11:06.925Z,8.10
2018-02-14T21:13:36.819Z,7.53
2018-02-14T21:16:06.798Z,7.78
2018-02-14T21:18:37.500Z,8.48
2018-02-14T21:21:08.384Z,8.07
2018-02-14T21:23:38.161Z,8.57
2018-02-14T21:26:08.851Z,8.40
2018-02-14T21:28:38.661Z,7.85
2018-02-14T21:31:08.495Z,8.35
2018-02-14T21:33:38.273Z,8.48
2018-02-14T21:36:08.100Z,8.70
2018-02-14T21:38:37.939Z,8.57
2018-02-14T21:41:07.833Z,8.13
2018-02-14T21:43:37.804Z,9.05
2018-02-14T21:46:08.638Z,8.95
2018-02-14T21:48:39.177Z,9.25
2018-02-14T21:51:08.967Z,8.73
2018-02-14T21:53:39.573Z,8.85
2018-02-14T21:56:09.511Z,8.55
2018-02-14T21:58:40.081Z,7.95
2018-02-14T22:01:10.018Z,9.65
2018-02-14T22:03:39.763Z,9.02
2018-02-14T22:06:09.664Z,8.68
2018-02-14T22:08:39.415Z,9.75
2018-02-14T22:11:09.576Z,9.52
2018-02-14T22:13:39.421Z,8.73
2018-02-14T22:16:09.339Z,9.32
2018-02-14T22:18:39.232Z,9.32
2018-02-14T22:21:09.033Z,10.02
2018-02-14T22:23:39.226Z,9.57
2018-02-14T22:26:09.056Z,9.32
2018-02-14T22:28:39.047Z,9.60
2018-02-14T22:31:08.980Z,10.20
2018-02-14T22:33:38.651Z,9.55
2018-02-14T22:36:09.392Z,10.38
2018-02-14T22:38:40.117Z,9.18
2018-02-14T22:41:10.833Z,8.75
2018-02-14T22:43:40.600Z,10.23
2018-02-14T22:46:10.628Z,9.77
2018-02-14T22:48:40.647Z,10.18
2018-02-14T22:51:10.731Z,9.68
2018-02-14T22:53:41.235Z,9.63
2018-02-14T22:56:11.856Z,10.45
2018-02-14T22:58:41.640Z,11.20
2018-02-14T23:01:11.596Z,9.43
2018-02-14T23:03:42.207Z,10.45
2018-02-14T23:06:12.257Z,10.73
2018-02-14T23:08:42.835Z,10.50
2018-02-14T23:11:12.658Z,10.93
2018-02-14T23:13:42.560Z,11.12
2018-02-14T23:16:12.412Z,10.80
2018-02-14T23:18:42.317Z,10.15
2018-02-14T23:21:12.142Z,10.77
2018-02-14T23:23:42.483Z,10.70
2018-02-14T23:26:13.000Z,10.43
2018-02-14T23:28:43.641Z,10.68
2018-02-14T23:31:14.205Z,10.57
2018-02-14T23:33:44.026Z,10.48
2018-02-14T23:36:13.940Z,10.70
2018-02-14T23:38:43.697Z,10.75
2018-02-14T23:41:14.283Z,10.85
2018-02-14T23:43:44.164Z,11.32
2018-02-14T23:46:14.828Z,11.05
2018-02-14T23:48:44.652Z,11.20
2018-02-14T23:51:14.385Z,11.02
2018-02-14T23:53:44.321Z,11.18
2018-02-14T23:56:14.055Z,11.38
2018-02-14T23:58:44.069Z,10.75
